Decoded Metar for PAPG (PETERSBURG in AK, USA) (IATA:PSG) | Meteo·Mobile Aviation Weather
aviador You're here:

PAPG Decoded Metar

PETERSBURG in AK, USA
Report Time2019-08-24 13:56:00
UTC Time2019-08-24 14:21:40
Flight Rules lifr LIFR
WindCalm
Visibility9999 m
Phenomena:Light Rain
Clouds:Broken 003 Hf
Overcast 017 Hf
Ceiling300 ft
Temp10°C (ISA -5)
Dew Point10°C (100% RH)
QNH1003 hPa
Density Alt-33 ft
Elevation49 ft
Report Wrong Elevation
Raw Report
PAPG 241356Z 00000KT 10SM -RA BKN003 OVC017 10/10 A2963 RMK AO2
SLP036 P0003 T01000100=

Extra information for PAPG:More info

Metar Taf Metar & Taf Last 4 Metars F.Rules Stats Wind Profile Meteogram Temp Stats Airport Information Weather charts Add Link Nearby VenuesMetar ALERT Operation Metar Decoded Social comments

AIRNAV info for PAPG